createdAt,value
2019-03-23T00:01:18.886Z,6.40
2019-03-23T00:06:30.817Z,6.20
2019-03-23T00:11:33.674Z,6.30
2019-03-23T00:16:40.065Z,6.30
2019-03-23T00:21:46.494Z,6.20
2019-03-23T00:26:52.781Z,6.10
2019-03-23T00:31:59.566Z,6.00
2019-03-23T00:37:05.572Z,6.00
2019-03-23T00:42:11.788Z,6.00
2019-03-23T00:47:17.965Z,5.90
2019-03-23T00:52:23.870Z,5.80
2019-03-23T00:57:29.661Z,5.70
2019-03-23T01:02:35.578Z,5.80
2019-03-23T01:07:41.427Z,5.60
2019-03-23T01:12:48.339Z,5.60
2019-03-23T01:17:54.191Z,5.60
2019-03-23T01:23:00.155Z,5.50
2019-03-23T01:28:06.016Z,5.40
2019-03-23T01:33:11.891Z,5.40
2019-03-23T01:38:17.743Z,5.30
2019-03-23T01:43:23.603Z,5.30
2019-03-23T01:48:29.558Z,5.10
2019-03-23T01:53:35.407Z,5.10
2019-03-23T01:58:41.262Z,5.10
2019-03-23T02:03:47.111Z,5.10
2019-03-23T02:08:53.192Z,5.00
2019-03-23T02:13:59.056Z,4.90
2019-03-23T02:19:04.987Z,4.90
2019-03-23T02:24:10.834Z,4.80
2019-03-23T02:29:16.687Z,4.80
2019-03-23T02:34:22.574Z,4.80
2019-03-23T02:39:28.410Z,4.70
2019-03-23T02:44:34.569Z,4.60
2019-03-23T02:49:40.447Z,4.60
2019-03-23T02:54:46.297Z,4.50
2019-03-23T02:59:52.173Z,4.40
2019-03-23T03:04:58.081Z,4.60
2019-03-23T03:10:04.257Z,4.40
2019-03-23T03:15:10.448Z,4.40
2019-03-23T03:20:16.337Z,4.40
2019-03-23T03:25:22.192Z,4.20
2019-03-23T03:30:28.052Z,4.40
2019-03-23T03:35:33.898Z,4.30
2019-03-23T03:40:40.296Z,4.30
2019-03-23T03:45:46.124Z,4.10
2019-03-23T03:50:52.020Z,4.00
2019-03-23T03:55:57.876Z,4.00
2019-03-23T04:01:03.772Z,4.00
2019-03-23T04:06:09.625Z,3.80
2019-03-23T04:11:15.469Z,3.70
2019-03-23T04:16:21.315Z,3.80
2019-03-23T04:21:27.157Z,3.80
2019-03-23T04:26:33.015Z,3.80
2019-03-23T04:31:38.903Z,3.90
2019-03-23T04:36:44.775Z,3.80
2019-03-23T04:41:50.608Z,3.60
2019-03-23T04:46:56.436Z,3.60
2019-03-23T04:52:02.280Z,3.60
2019-03-23T04:57:08.118Z,3.60
2019-03-23T05:02:13.951Z,3.60
2019-03-23T05:07:19.802Z,3.60
2019-03-23T05:12:25.621Z,3.50
2019-03-23T05:17:31.480Z,3.60
2019-03-23T05:22:37.322Z,3.60
2019-03-23T05:27:43.279Z,3.50
2019-03-23T05:32:49.182Z,3.60
2019-03-23T05:37:55.147Z,3.70
2019-03-23T05:43:01.035Z,3.80
2019-03-23T05:48:06.867Z,4.30
2019-03-23T05:53:12.711Z,4.70
2019-03-23T05:58:18.559Z,4.70
2019-03-23T06:03:24.440Z,5.20
2019-03-23T06:08:31.366Z,5.50
2019-03-23T06:13:37.237Z,5.40
2019-03-23T06:18:43.100Z,5.70
2019-03-23T06:23:48.959Z,6.20
2019-03-23T06:28:54.856Z,7.40
2019-03-23T06:34:00.754Z,7.90
2019-03-23T06:39:08.270Z,8.20
2019-03-23T06:44:14.111Z,8.60
2019-03-23T06:49:19.977Z,8.60
2019-03-23T06:54:25.833Z,8.80
2019-03-23T06:59:31.664Z,9.10
2019-03-23T07:04:37.520Z,8.80
2019-03-23T07:09:43.411Z,9.40
2019-03-23T07:14:49.268Z,9.10
2019-03-23T07:19:55.120Z,9.00
2019-03-23T07:25:00.973Z,8.70
2019-03-23T07:30:09.487Z,10.00
2019-03-23T07:35:16.235Z,10.80
2019-03-23T07:40:22.088Z,11.40
2019-03-23T07:45:27.955Z,11.50
2019-03-23T07:50:33.914Z,10.70
2019-03-23T07:55:39.762Z,11.00
2019-03-23T08:00:45.643Z,11.50
2019-03-23T08:05:51.494Z,12.00
2019-03-23T08:10:57.342Z,10.30
2019-03-23T08:16:03.226Z,13.40
2019-03-23T08:21:09.091Z,13.20
2019-03-23T08:26:14.939Z,13.50
2019-03-23T08:31:20.834Z,13.70
2019-03-23T08:36:26.717Z,14.00
2019-03-23T08:41:32.582Z,14.20
2019-03-23T08:46:38.467Z,14.80
2019-03-23T08:51:44.351Z,15.30
2019-03-23T08:56:50.304Z,15.30
2019-03-23T09:01:56.163Z,13.80
2019-03-23T09:07:02.032Z,14.50
2019-03-23T09:12:08.450Z,14.40
2019-03-23T09:17:14.318Z,13.50
2019-03-23T09:22:20.356Z,14.50
2019-03-23T09:27:34.316Z,14.70
2019-03-23T09:32:40.868Z,15.20
2019-03-23T09:37:47.243Z,15.10
2019-03-23T09:42:53.778Z,15.00
2019-03-23T09:48:00.098Z,15.40
2019-03-23T09:53:06.318Z,15.80
2019-03-23T09:58:12.450Z,15.60
2019-03-23T10:03:19.450Z,16.10
2019-03-23T10:08:26.151Z,17.10
2019-03-23T10:13:32.147Z,17.10
2019-03-23T10:18:38.102Z,17.20
2019-03-23T10:23:44.329Z,17.30
2019-03-23T10:28:50.459Z,17.80
2019-03-23T10:33:57.336Z,17.90
2019-03-23T10:39:04.918Z,18.60
2019-03-23T10:44:11.690Z,17.70
2019-03-23T10:49:18.007Z,17.90
2019-03-23T10:54:25.618Z,18.90
2019-03-23T10:59:32.146Z,18.00
2019-03-23T11:04:38.971Z,19.30
2019-03-23T11:09:44.948Z,20.00
2019-03-23T11:14:51.908Z,20.10
2019-03-23T11:19:58.964Z,19.90
2019-03-23T11:25:07.269Z,20.40
2019-03-23T11:30:15.214Z,21.00
2019-03-23T11:35:21.727Z,21.10
2019-03-23T11:40:28.667Z,20.90
2019-03-23T11:45:34.934Z,20.80
2019-03-23T11:50:41.682Z,21.60
2019-03-23T11:55:48.254Z,22.70
2019-03-23T12:00:54.955Z,22.60
2019-03-23T12:06:02.287Z,22.90
2019-03-23T12:11:09.046Z,23.00
2019-03-23T12:16:16.024Z,22.90
2019-03-23T12:21:22.278Z,23.00
2019-03-23T12:26:29.582Z,24.30
2019-03-23T12:31:41.380Z,24.10
2019-03-23T12:36:48.014Z,24.50
2019-03-23T12:41:55.709Z,24.80
2019-03-23T12:47:02.708Z,25.10
2019-03-23T12:52:12.005Z,24.50
2019-03-23T12:57:22.643Z,23.60
2019-03-23T13:02:31.383Z,22.60
2019-03-23T13:07:40.304Z,24.30
2019-03-23T13:12:47.853Z,24.50
2019-03-23T13:17:55.768Z,25.50
2019-03-23T13:23:05.725Z,25.30
2019-03-23T13:28:17.050Z,25.90
2019-03-23T13:33:31.821Z,25.90
2019-03-23T13:38:47.295Z,23.60
2019-03-23T13:43:57.101Z,23.30
2019-03-23T13:49:16.413Z,23.30
2019-03-23T13:54:27.145Z,23.70
2019-03-23T13:59:41.555Z,21.60
2019-03-23T14:04:50.311Z,21.20
2019-03-23T14:09:57.835Z,23.70
2019-03-23T14:15:07.918Z,24.00
2019-03-23T14:20:17.011Z,23.70
2019-03-23T14:25:23.543Z,24.10
2019-03-23T14:30:29.461Z,25.10
2019-03-23T14:35:40.673Z,25.40
2019-03-23T14:40:50.123Z,25.70
2019-03-23T14:46:03.487Z,26.60
2019-03-23T14:51:19.501Z,26.80
2019-03-23T14:56:31.550Z,26.60
2019-03-23T15:01:39.931Z,26.30
2019-03-23T15:06:54.672Z,26.60
2019-03-23T15:12:14.553Z,26.70
2019-03-23T15:17:19.856Z,26.10
2019-03-23T15:22:29.825Z,26.10
2019-03-23T15:27:39.593Z,25.30
2019-03-23T15:32:54.031Z,25.40
2019-03-23T15:38:06.949Z,26.00
2019-03-23T15:43:32.920Z,26.10
2019-03-23T15:48:43.382Z,25.60
2019-03-23T15:53:52.450Z,24.00
2019-03-23T15:59:03.858Z,24.40
2019-03-23T16:04:11.219Z,24.30
2019-03-23T16:09:19.147Z,23.10
2019-03-23T16:14:26.862Z,22.90
2019-03-23T16:19:34.347Z,21.40
2019-03-23T16:24:40.216Z,20.10
2019-03-23T16:29:46.300Z,19.60
2019-03-23T16:34:52.280Z,18.90
2019-03-23T16:39:59.052Z,18.80
2019-03-23T16:45:06.347Z,18.60
2019-03-23T16:50:12.788Z,18.40
2019-03-23T16:55:19.113Z,18.30
2019-03-23T17:00:38.956Z,18.10
2019-03-23T17:05:45.396Z,17.90
2019-03-23T17:10:51.407Z,17.70
2019-03-23T17:15:57.335Z,17.40
2019-03-23T17:21:03.559Z,17.20
2019-03-23T17:26:09.508Z,16.80
2019-03-23T17:31:15.903Z,16.70
2019-03-23T17:36:21.847Z,16.40
2019-03-23T17:41:27.736Z,16.00
2019-03-23T17:46:33.636Z,15.60
2019-03-23T17:51:39.766Z,15.10
2019-03-23T17:56:45.798Z,14.90
2019-03-23T18:01:52.124Z,14.50
2019-03-23T18:06:58.271Z,14.20
2019-03-23T18:12:04.471Z,14.10
2019-03-23T18:17:10.421Z,13.90
2019-03-23T18:22:17.652Z,16.00
2019-03-23T18:27:23.879Z,13.80
2019-03-23T18:32:29.947Z,13.70
2019-03-23T18:37:35.822Z,13.60
2019-03-23T18:42:44.546Z,13.40
2019-03-23T18:47:50.482Z,13.40
2019-03-23T18:52:56.447Z,13.10
2019-03-23T18:58:02.326Z,13.00
2019-03-23T19:03:08.534Z,12.90
2019-03-23T19:08:14.476Z,12.90
2019-03-23T19:13:20.319Z,12.90
2019-03-23T19:18:26.235Z,12.70
2019-03-23T19:23:34.583Z,12.60
2019-03-23T19:28:42.971Z,12.40
2019-03-23T19:33:49.985Z,12.30
2019-03-23T19:38:56.018Z,12.20
2019-03-23T19:44:01.978Z,12.20
2019-03-23T19:49:07.847Z,12.40
2019-03-23T19:54:13.760Z,12.40
2019-03-23T19:59:20.150Z,12.40
2019-03-23T20:04:27.043Z,12.30
2019-03-23T20:09:33.542Z,12.00
2019-03-23T20:14:41.745Z,11.60
2019-03-23T20:19:48.778Z,11.00
2019-03-23T20:24:56.041Z,11.10
2019-03-23T20:30:03.738Z,8.90
2019-03-23T20:35:11.615Z,11.00
2019-03-23T20:40:17.576Z,10.90
2019-03-23T20:45:30.623Z,10.70
2019-03-23T20:50:39.486Z,10.50
2019-03-23T20:55:46.910Z,10.40
2019-03-23T21:00:53.568Z,10.40
2019-03-23T21:05:59.542Z,10.30
2019-03-23T21:11:05.774Z,10.20
2019-03-23T21:16:14.500Z,10.10
2019-03-23T21:21:20.789Z,10.10
2019-03-23T21:26:26.679Z,10.00
2019-03-23T21:31:32.650Z,9.90
2019-03-23T21:36:40.061Z,9.90
2019-03-23T21:41:47.969Z,9.80
2019-03-23T21:46:54.207Z,8.40
2019-03-23T21:52:00.184Z,9.70
2019-03-23T21:57:06.086Z,9.50
2019-03-23T22:02:18.094Z,9.50
2019-03-23T22:07:25.819Z,9.40
2019-03-23T22:12:33.289Z,9.30
2019-03-23T22:17:39.302Z,9.30
2019-03-23T22:22:49.083Z,9.10
2019-03-23T22:27:55.438Z,9.00
2019-03-23T22:33:01.752Z,9.00
2019-03-23T22:38:14.332Z,8.90
2019-03-23T22:43:20.439Z,9.00
2019-03-23T22:48:28.326Z,8.90
2019-03-23T22:53:34.862Z,8.90
2019-03-23T22:58:40.879Z,8.30
2019-03-23T23:03:46.851Z,8.00
2019-03-23T23:08:52.816Z,7.80
2019-03-23T23:13:58.776Z,7.70
2019-03-23T23:19:04.688Z,7.70
2019-03-23T23:24:10.558Z,7.90
2019-03-23T23:29:16.478Z,8.10
2019-03-23T23:34:22.405Z,8.20
2019-03-23T23:39:28.326Z,8.20
2019-03-23T23:44:34.208Z,8.30
2019-03-23T23:49:40.129Z,8.20
2019-03-23T23:54:45.966Z,8.10
2019-03-23T23:59:51.812Z,8.00
